Time;durP1;ratioP1;P1;durP2;ratioP2;P2;SDS_P1;SDS_P2;PMS_P1;PMS_P2;Temp;Humidity;BMP_temperature;BMP_pressure;BME280_temperature;BME280_humidity;BME280_pressure;Samples;Min_cycle;Max_cycle;Signal;HPM_P1;HPM_P2
2021/11/30 00:54:50;;;;;;;5.50;5.10;;;14.20;99.90;;;;;;6149127;23;20409;-78
2021/11/30 01:09:15;;;;;;;6.07;5.67;;;14.00;99.90;;;;;;5925780;24;20424;-75
2021/11/30 01:12:06;;;;;;;;;;;;;;;;;;;;;
2021/11/30 01:18:39;;;;;;;5.90;5.50;;;14.10;99.90;;;;;;5871935;24;20440;-75
2021/11/30 01:21:12;;;;;;;7.00;6.50;;;14.00;99.90;;;;;;5963222;23;20761;-73
2021/11/30 01:23:43;;;;;;;6.63;6.03;;;14.00;99.90;;;;;;6062829;23;20447;-70
2021/11/30 01:26:22;;;;;;;6.67;6.17;;;14.00;99.90;;;;;;6057625;23;20424;-73
2021/11/30 01:28:56;;;;;;;8.13;7.40;;;13.90;99.90;;;;;;6059619;23;20933;-73
2021/11/30 01:31:30;;;;;;;8.80;7.90;;;13.70;99.90;;;;;;6063655;23;20441;-73
2021/11/30 01:34:13;;;;;;;8.97;8.17;;;13.70;99.90;;;;;;6056801;23;20504;-71
2021/11/30 01:37:15;;;;;;;;;;;;;;;;;;;;;
2021/11/30 01:40:06;;;;;;;8.33;7.53;;;13.50;99.90;;;;;;6134097;23;20410;-72
2021/11/30 01:42:45;;;;;;;6.63;6.10;;;13.50;99.90;;;;;;6150385;23;20454;-71
2021/11/30 01:45:31;;;;;;;7.10;6.50;;;13.40;99.90;;;;;;6147266;23;20406;-71
2021/11/30 01:51:04;;;;;;;7.30;6.60;;;13.40;99.90;;;;;;6147939;23;20437;-73
2021/11/30 01:53:39;;;;;;;8.23;7.43;;;13.40;99.90;;;;;;6170915;23;20516;-74
2021/11/30 01:56:13;;;;;;;8.33;7.63;;;13.50;99.90;;;;;;6177134;23;20442;-74
2021/11/30 01:59:13;;;;;;;7.37;6.63;;;13.50;99.90;;;;;;6177087;23;20421;-72
2021/11/30 02:01:46;;;;;;;8.40;7.60;;;13.60;99.90;;;;;;6161991;23;20500;-72
2021/11/30 02:04:23;;;;;;;8.20;7.50;;;13.70;99.90;;;;;;6177976;23;20421;-72
2021/11/30 02:06:54;;;;;;;11.77;8.90;;;13.70;99.90;;;;;;6177965;23;20438;-70
2021/11/30 02:09:27;;;;;;;11.03;9.93;;;13.60;99.90;;;;;;6176213;23;20486;-71
2021/11/30 02:11:58;;;;;;;13.50;12.10;;;13.60;99.90;;;;;;6177638;23;20923;-73
2021/11/30 02:14:31;;;;;;;12.40;10.60;;;13.50;99.90;;;;;;6177587;23;20509;-72
2021/11/30 02:23:29;;;;;;;12.50;11.30;;;13.30;99.90;;;;;;6125401;23;20440;-71
2021/11/30 02:26:17;;;;;;;17.50;15.80;;;13.20;99.90;;;;;;6181427;23;20448;-73
2021/11/30 02:28:51;;;;;;;21.07;19.07;;;13.20;99.90;;;;;;6174375;23;20492;-71
2021/11/30 02:31:31;;;;;;;25.57;19.10;;;13.00;99.90;;;;;;6175367;23;20489;-73
2021/11/30 02:34:23;;;;;;;20.80;18.40;;;12.90;99.90;;;;;;6176246;23;20460;-73
2021/11/30 02:37:04;;;;;;;18.63;16.27;;;12.90;99.90;;;;;;6179831;23;20422;-70
2021/11/30 02:39:39;;;;;;;18.23;16.33;;;12.80;99.90;;;;;;6178179;23;20513;-73
2021/11/30 02:42:13;;;;;;;18.80;16.27;;;12.70;99.90;;;;;;6176792;23;20827;-70
2021/11/30 02:45:04;;;;;;;;;;;;;;;;;;;;;
2021/11/30 02:48:49;;;;;;;19.50;15.40;;;12.60;99.90;;;;;;6169465;23;20422;-76
2021/11/30 02:55:16;;;;;;;27.63;18.23;;;12.40;99.90;;;;;;6064620;23;20426;-75
2021/11/30 02:57:49;;;;;;;20.57;17.37;;;12.40;99.90;;;;;;6149212;23;20517;-71
2021/11/30 03:00:20;;;;;;;17.60;15.60;;;12.30;99.90;;;;;;6142171;23;20414;-72
2021/11/30 03:02:51;;;;;;;19.07;16.70;;;12.20;99.90;;;;;;6146120;23;20781;-70
2021/11/30 03:05:22;;;;;;;19.63;16.27;;;12.20;99.90;;;;;;6141571;23;20466;-70
2021/11/30 03:07:53;;;;;;;21.27;16.90;;;12.10;99.90;;;;;;6148333;23;20502;-70
2021/11/30 03:10:26;;;;;;;431.50;74.03;;;12.10;99.90;;;;;;6147679;23;20516;-70
2021/11/30 03:12:57;;;;;;;28.03;17.50;;;12.10;99.90;;;;;;6146826;23;20502;-70
2021/11/30 03:15:30;;;;;;;17.77;15.87;;;12.10;99.90;;;;;;6148777;23;20494;-70
2021/11/30 03:18:01;;;;;;;18.33;15.13;;;12.00;99.90;;;;;;6143847;23;20501;-70
2021/11/30 03:20:35;;;;;;;17.40;15.70;;;11.90;99.90;;;;;;6148865;23;20534;-68
2021/11/30 03:23:09;;;;;;;16.47;14.73;;;11.90;99.90;;;;;;6148515;23;20513;-70
2021/11/30 03:25:42;;;;;;;16.10;14.50;;;11.80;99.90;;;;;;6145979;23;20411;-70
2021/11/30 03:28:13;;;;;;;16.67;14.87;;;11.80;99.90;;;;;;6147116;23;20862;-70
2021/11/30 03:30:54;;;;;;;17.50;15.80;;;11.80;99.90;;;;;;6148973;23;20501;-69
2021/11/30 03:36:13;;;;;;;21.07;18.97;;;11.70;99.90;;;;;;6142213;23;20421;-70
2021/11/30 03:38:44;;;;;;;21.60;19.50;;;11.70;99.90;;;;;;6144199;23;20407;-69
2021/11/30 03:41:16;;;;;;;26.53;23.63;;;11.60;99.90;;;;;;6147059;23;20447;-68
2021/11/30 03:43:47;;;;;;;27.47;24.57;;;11.60;99.90;;;;;;6148132;23;20417;-67
2021/11/30 03:46:19;;;;;;;27.00;24.37;;;11.60;99.90;;;;;;6148604;23;20434;-67
2021/11/30 03:48:49;;;;;;;24.03;21.80;;;11.60;99.90;;;;;;6150019;23;20418;-67
2021/11/30 03:51:20;;;;;;;20.23;17.93;;;11.50;99.90;;;;;;6148884;23;20937;-67
2021/11/30 03:53:51;;;;;;;18.77;16.97;;;11.50;99.90;;;;;;6170480;23;20442;-67
2021/11/30 03:56:25;;;;;;;21.07;19.03;;;11.40;99.90;;;;;;6178313;23;20454;-70
2021/11/30 03:58:57;;;;;;;22.27;20.20;;;11.40;99.90;;;;;;6177967;23;20413;-71
2021/11/30 04:01:28;;;;;;;25.80;23.30;;;11.40;99.90;;;;;;6174316;23;20453;-70
2021/11/30 04:04:01;;;;;;;26.80;23.97;;;11.30;99.90;;;;;;6173035;23;20422;-70
2021/11/30 04:06:31;;;;;;;26.03;23.40;;;11.30;99.90;;;;;;6176304;23;20410;-71
2021/11/30 04:09:03;;;;;;;28.03;24.97;;;11.20;99.90;;;;;;6175929;23;20433;-71
2021/11/30 04:11:39;;;;;;;176.50;48.97;;;11.30;99.90;;;;;;6175420;23;20412;-71
2021/11/30 04:14:11;;;;;;;1713.87;294.90;;;11.30;99.90;;;;;;6180031;23;20410;-70
2021/11/30 04:16:42;;;;;;;33.43;30.13;;;11.30;99.90;;;;;;6179952;23;20414;-70
2021/11/30 04:19:13;;;;;;;31.80;28.53;;;11.30;99.90;;;;;;6179886;23;20888;-70
2021/11/30 04:21:44;;;;;;;31.97;28.83;;;11.20;99.90;;;;;;6183016;23;20531;-71
2021/11/30 04:24:15;;;;;;;32.70;29.27;;;11.10;99.90;;;;;;6177935;23;20420;-71
2021/11/30 04:26:48;;;;;;;30.10;26.90;;;11.20;99.90;;;;;;6180238;23;20413;-71
2021/11/30 04:29:18;;;;;;;33.60;30.00;;;11.10;99.90;;;;;;6177431;23;20809;-71
2021/11/30 04:31:49;;;;;;;26.87;24.40;;;11.00;99.90;;;;;;6178257;23;20932;-71
2021/11/30 04:34:23;;;;;;;26.80;24.20;;;10.90;99.90;;;;;;6180057;23;20449;-71
2021/11/30 04:36:54;;;;;;;24.80;22.43;;;10.90;99.90;;;;;;6180728;23;20417;-71
2021/11/30 04:39:25;;;;;;;29.07;24.00;;;10.90;99.90;;;;;;6177792;23;20727;-71
2021/11/30 04:42:00;;;;;;;27.80;25.00;;;10.90;99.90;;;;;;6178056;23;20449;-72
2021/11/30 04:44:34;;;;;;;25.83;23.03;;;10.90;99.90;;;;;;6180112;23;20535;-72
2021/11/30 04:47:08;;;;;;;27.20;24.60;;;10.80;99.90;;;;;;6182158;23;20420;-71
2021/11/30 04:49:52;;;;;;;26.97;24.13;;;10.70;99.90;;;;;;6177922;23;20741;-70
2021/11/30 04:52:23;;;;;;;26.90;24.10;;;10.70;99.90;;;;;;6182274;23;20520;-72
2021/11/30 04:54:57;;;;;;;24.50;22.03;;;10.70;99.90;;;;;;6177487;23;20412;-72
2021/11/30 04:57:30;;;;;;;22.50;20.13;;;10.80;99.90;;;;;;6179976;23;20436;-72
2021/11/30 05:00:10;;;;;;;24.40;21.87;;;10.80;99.90;;;;;;6169761;23;20417;-72
2021/11/30 05:02:46;;;;;;;22.50;20.30;;;10.80;99.90;;;;;;6178031;23;20467;-71
2021/11/30 05:05:20;;;;;;;22.93;20.60;;;10.80;99.90;;;;;;6178790;23;20414;-71
2021/11/30 05:07:57;;;;;;;27.40;24.37;;;10.80;99.90;;;;;;6182071;23;20711;-72
2021/11/30 05:10:28;;;;;;;25.87;22.13;;;10.90;99.90;;;;;;6179498;23;20512;-73
2021/11/30 05:13:14;;;;;;;31.43;24.50;;;11.00;99.90;;;;;;6169409;23;20417;-72
2021/11/30 05:15:45;;;;;;;39.10;25.10;;;11.10;99.90;;;;;;6181648;23;20452;-71
2021/11/30 05:18:16;;;;;;;33.57;22.97;;;11.00;99.90;;;;;;6179232;23;20789;-71
2021/11/30 05:20:49;;;;;;;25.87;21.10;;;11.10;99.90;;;;;;6179517;23;20419;-71
2021/11/30 05:23:27;;;;;;;26.10;21.53;;;11.10;99.90;;;;;;6179475;23;20464;-71
2021/11/30 05:26:00;;;;;;;31.93;23.10;;;11.10;99.90;;;;;;6173954;23;20932;-71
2021/11/30 05:28:33;;;;;;;36.00;22.17;;;11.10;99.90;;;;;;6178986;23;20677;-71
2021/11/30 05:31:05;;;;;;;35.87;24.40;;;11.10;99.90;;;;;;6174701;23;20496;-71
2021/11/30 05:33:36;;;;;;;44.23;25.40;;;11.10;99.90;;;;;;6177346;23;20413;-71
2021/11/30 05:36:10;;;;;;;42.83;24.57;;;11.20;99.90;;;;;;6181003;23;20750;-71
2021/11/30 05:38:41;;;;;;;25.43;21.47;;;11.20;99.90;;;;;;6184315;23;20572;-72
2021/11/30 05:41:14;;;;;;;40.43;26.40;;;11.30;99.90;;;;;;6182588;23;20418;-72
2021/11/30 05:43:49;;;;;;;49.50;28.90;;;11.30;99.90;;;;;;6179621;23;20446;-72
2021/11/30 05:46:22;;;;;;;28.30;23.13;;;11.20;99.90;;;;;;6182819;23;20410;-71
2021/11/30 05:48:56;;;;;;;44.43;25.33;;;11.20;99.90;;;;;;6181072;23;20508;-73
2021/11/30 05:51:29;;;;;;;49.30;26.10;;;11.30;99.90;;;;;;6182026;23;20418;-72
2021/11/30 05:54:00;;;;;;;36.13;23.97;;;11.30;99.90;;;;;;6179642;23;20430;-71
2021/11/30 05:56:32;;;;;;;65.67;29.50;;;11.30;99.90;;;;;;6183636;23;20802;-71
2021/11/30 05:59:05;;;;;;;71.27;31.70;;;11.30;99.90;;;;;;6177805;23;20425;-71
2021/11/30 06:01:41;;;;;;;31.33;25.90;;;11.20;99.90;;;;;;6173588;23;20742;-72
2021/11/30 06:04:12;;;;;;;22.17;18.90;;;11.30;99.90;;;;;;6172895;23;20889;-72
2021/11/30 06:06:43;;;;;;;31.33;21.47;;;11.30;99.90;;;;;;6181710;23;20476;-71
2021/11/30 06:09:14;;;;;;;21.40;19.20;;;11.30;99.90;;;;;;6178631;23;20892;-72
2021/11/30 06:11:45;;;;;;;28.13;20.90;;;11.30;99.90;;;;;;6181027;23;20520;-72
2021/11/30 06:14:18;;;;;;;35.80;22.43;;;11.30;99.90;;;;;;6171328;23;20414;-72
2021/11/30 06:16:48;;;;;;;46.60;23.57;;;11.30;99.90;;;;;;6179023;23;20409;-74
2021/11/30 06:19:20;;;;;;;42.43;24.10;;;11.30;99.90;;;;;;6178737;23;20410;-73
2021/11/30 06:21:51;;;;;;;30.50;21.33;;;11.30;99.90;;;;;;6178489;23;20505;-73
2021/11/30 06:24:23;;;;;;;33.50;23.47;;;11.30;99.90;;;;;;6176410;23;20726;-73
2021/11/30 06:26:54;;;;;;;36.13;25.20;;;11.30;99.90;;;;;;6177177;23;20417;-73
2021/11/30 06:29:27;;;;;;;35.07;22.93;;;11.30;99.90;;;;;;6179422;23;20409;-73
2021/11/30 06:31:58;;;;;;;26.53;19.83;;;11.30;99.90;;;;;;6178965;23;20434;-72
2021/11/30 06:34:29;;;;;;;42.97;25.50;;;11.30;99.90;;;;;;6176482;23;20489;-71
2021/11/30 06:37:00;;;;;;;36.90;24.33;;;11.30;99.90;;;;;;6178995;23;20753;-70
2021/11/30 06:39:30;;;;;;;33.03;25.00;;;11.30;99.90;;;;;;6178208;23;20493;-70
2021/11/30 06:42:01;;;;;;;31.17;22.60;;;11.30;99.90;;;;;;6184100;23;20928;-71
2021/11/30 06:44:35;;;;;;;21.00;18.90;;;11.20;99.90;;;;;;6179070;23;20461;-73
2021/11/30 06:47:07;;;;;;;25.47;21.70;;;11.20;99.90;;;;;;6180496;23;20410;-72
2021/11/30 06:49:38;;;;;;;27.40;20.90;;;11.10;99.90;;;;;;6176807;23;20418;-72
2021/11/30 06:52:09;;;;;;;29.83;20.90;;;11.20;99.90;;;;;;6177973;23;20413;-73
2021/11/30 06:54:43;;;;;;;29.43;22.13;;;11.20;99.90;;;;;;6176977;23;20445;-71
2021/11/30 06:57:15;;;;;;;21.87;18.97;;;11.20;99.90;;;;;;6175562;23;20495;-71
2021/11/30 06:59:47;;;;;;;23.07;18.40;;;11.20;99.90;;;;;;6176622;23;20416;-72
2021/11/30 07:02:20;;;;;;;19.70;17.43;;;11.20;99.90;;;;;;6178541;23;20691;-71
2021/11/30 07:04:53;;;;;;;23.30;19.00;;;11.30;99.90;;;;;;6178511;23;20446;-70
2021/11/30 07:07:31;;;;;;;21.03;18.73;;;11.30;99.90;;;;;;6179245;23;20755;-71
2021/11/30 07:10:11;;;;;;;17.97;16.13;;;11.40;99.90;;;;;;6178455;23;20417;-70
2021/11/30 07:13:02;;;;;;;17.77;16.00;;;11.40;99.90;;;;;;6181695;23;20488;-72
2021/11/30 07:15:35;;;;;;;16.70;15.10;;;11.30;99.90;;;;;;6179144;23;20509;-71
2021/11/30 07:18:06;;;;;;;17.47;15.80;;;11.40;99.90;;;;;;6177470;23;20417;-71
2021/11/30 07:20:37;;;;;;;17.30;15.60;;;11.40;99.90;;;;;;6177233;23;20428;-71
2021/11/30 07:23:08;;;;;;;20.90;17.63;;;11.50;99.90;;;;;;6179472;23;20450;-71
2021/11/30 07:25:39;;;;;;;20.77;18.60;;;11.50;99.90;;;;;;6176099;23;20472;-70
2021/11/30 07:28:10;;;;;;;18.00;15.93;;;11.40;99.90;;;;;;6177516;23;20410;-70
2021/11/30 07:30:43;;;;;;;17.87;15.97;;;11.30;99.90;;;;;;6176572;23;21090;-72
2021/11/30 07:33:14;;;;;;;16.43;14.73;;;11.30;99.90;;;;;;6178410;23;20433;-71
2021/11/30 07:35:45;;;;;;;15.73;14.07;;;11.20;99.90;;;;;;6179368;23;20432;-71
2021/11/30 07:38:16;;;;;;;17.50;15.70;;;11.20;99.90;;;;;;6178626;23;20417;-71
2021/11/30 07:40:46;;;;;;;17.60;15.80;;;11.30;99.90;;;;;;6178948;23;20424;-71
2021/11/30 07:43:21;;;;;;;19.40;16.30;;;11.10;99.90;;;;;;6176332;23;20452;-72
2021/11/30 07:45:54;;;;;;;17.33;15.47;;;11.00;99.90;;;;;;6184014;23;20421;-72
2021/11/30 07:48:27;;;;;;;17.17;15.47;;;11.00;99.90;;;;;;6177208;23;20454;-71
2021/11/30 07:50:59;;;;;;;15.27;13.63;;;11.00;99.90;;;;;;6180705;23;20490;-71
2021/11/30 07:53:30;;;;;;;16.40;14.90;;;11.10;99.90;;;;;;6177359;23;20429;-71
2021/11/30 07:56:03;;;;;;;17.00;15.40;;;11.00;99.90;;;;;;6176827;23;20413;-70
2021/11/30 07:58:41;;;;;;;15.97;14.40;;;10.90;99.90;;;;;;6169300;23;20429;-72
2021/11/30 08:01:15;;;;;;;14.80;13.30;;;10.90;99.90;;;;;;6171129;23;20426;-71
2021/11/30 08:03:47;;;;;;;19.80;14.53;;;10.90;99.90;;;;;;6177692;23;20445;-70
2021/11/30 08:06:18;;;;;;;16.27;14.27;;;10.90;99.90;;;;;;6177814;23;20414;-70
2021/11/30 08:08:52;;;;;;;16.30;14.60;;;10.90;99.90;;;;;;6177277;23;20417;-70
2021/11/30 08:11:27;;;;;;;17.60;15.27;;;10.90;99.90;;;;;;6176697;23;20423;-71
2021/11/30 08:14:00;;;;;;;15.60;13.43;;;10.80;99.90;;;;;;6180246;23;20425;-71
2021/11/30 08:16:33;;;;;;;16.00;14.43;;;10.80;99.90;;;;;;6178301;23;20409;-71
2021/11/30 08:19:05;;;;;;;17.17;13.80;;;10.80;99.90;;;;;;6178691;23;20418;-71
2021/11/30 08:21:40;;;;;;;13.07;11.87;;;10.80;99.90;;;;;;6180774;23;20406;-71
2021/11/30 08:24:13;;;;;;;15.33;13.93;;;10.80;99.90;;;;;;6175797;23;20488;-71
2021/11/30 08:26:44;;;;;;;14.93;13.53;;;10.80;99.90;;;;;;6178485;23;20414;-71
2021/11/30 08:29:20;;;;;;;14.27;12.87;;;10.90;99.90;;;;;;6174072;23;20575;-72
2021/11/30 08:31:52;;;;;;;14.70;12.10;;;10.90;99.90;;;;;;6176189;23;20862;-72
2021/11/30 08:34:23;;;;;;;18.07;13.33;;;10.90;99.90;;;;;;6179665;23;20480;-72
2021/11/30 08:36:58;;;;;;;13.57;12.23;;;10.90;99.90;;;;;;6178100;23;20444;-72
2021/11/30 08:39:30;;;;;;;13.57;11.87;;;10.90;99.90;;;;;;6172538;23;20484;-73
2021/11/30 08:42:05;;;;;;;13.37;11.83;;;11.00;99.90;;;;;;6176772;23;20412;-72
2021/11/30 08:44:36;;;;;;;15.20;13.40;;;11.20;99.90;;;;;;6178440;23;20453;-71
2021/11/30 08:47:11;;;;;;;14.63;12.47;;;11.20;99.90;;;;;;6176208;23;20539;-72
2021/11/30 08:49:50;;;;;;;16.73;14.67;;;11.20;99.90;;;;;;6180040;23;20417;-72
2021/11/30 08:52:26;;;;;;;16.30;14.80;;;11.30;99.90;;;;;;6179034;23;20442;-72
2021/11/30 08:55:00;;;;;;;16.03;14.33;;;11.30;99.90;;;;;;6178162;23;20509;-72
2021/11/30 08:57:31;;;;;;;15.60;14.00;;;11.30;99.90;;;;;;6176991;23;20416;-71
2021/11/30 09:00:03;;;;;;;15.90;14.40;;;11.30;99.90;;;;;;6177899;23;20812;-72
2021/11/30 09:02:36;;;;;;;15.70;13.13;;;11.30;99.90;;;;;;6176923;23;20487;-72
2021/11/30 09:05:09;;;;;;;14.13;12.80;;;11.20;99.90;;;;;;6179980;23;20940;-71
2021/11/30 09:07:40;;;;;;;14.30;12.80;;;11.20;99.90;;;;;;6179039;23;20529;-71
2021/11/30 09:10:14;;;;;;;16.27;13.70;;;11.20;99.90;;;;;;6179789;23;20441;-71
2021/11/30 09:12:45;;;;;;;14.30;12.87;;;11.20;99.90;;;;;;6179026;23;20422;-71
2021/11/30 09:15:16;;;;;;;13.73;12.40;;;11.20;99.90;;;;;;6182160;23;20958;-72
2021/11/30 09:17:52;;;;;;;14.40;13.10;;;11.20;99.90;;;;;;6177789;23;20410;-71
2021/11/30 09:20:24;;;;;;;13.60;12.30;;;11.30;99.90;;;;;;6179357;23;20430;-71
2021/11/30 09:22:55;;;;;;;12.97;11.73;;;11.30;99.90;;;;;;6181982;23;20414;-71
2021/11/30 09:25:28;;;;;;;13.43;12.03;;;11.40;99.90;;;;;;6175540;23;20529;-71
2021/11/30 09:28:01;;;;;;;12.10;10.93;;;11.30;99.90;;;;;;6179911;23;20409;-71
2021/11/30 09:30:35;;;;;;;11.40;10.30;;;11.40;99.90;;;;;;6177834;23;20493;-71
2021/11/30 09:33:08;;;;;;;11.50;10.40;;;11.40;99.90;;;;;;6178061;23;20418;-71
2021/11/30 09:35:38;;;;;;;13.20;12.00;;;11.40;99.90;;;;;;6181446;23;20406;-71
2021/11/30 09:38:10;;;;;;;12.67;11.47;;;11.40;99.90;;;;;;6180129;23;20410;-71
2021/11/30 09:40:42;;;;;;;12.33;11.03;;;11.40;99.90;;;;;;6178142;23;20913;-71
2021/11/30 09:43:31;;;;;;;11.87;10.70;;;11.40;99.90;;;;;;6179216;23;20786;-71
2021/11/30 09:46:03;;;;;;;11.70;10.60;;;11.40;99.90;;;;;;6182094;23;20989;-71
2021/11/30 09:48:37;;;;;;;11.07;9.97;;;11.50;99.90;;;;;;6176834;23;20441;-71
2021/11/30 09:51:09;;;;;;;11.73;9.77;;;11.40;99.90;;;;;;6180110;23;20420;-70
2021/11/30 09:53:40;;;;;;;10.40;9.27;;;11.40;99.90;;;;;;6183201;23;20482;-72
2021/11/30 09:56:12;;;;;;;10.37;9.37;;;11.30;99.90;;;;;;6183343;23;20813;-72
2021/11/30 09:58:45;;;;;;;9.47;8.47;;;11.30;99.90;;;;;;6180272;23;20406;-72
2021/11/30 10:01:16;;;;;;;8.97;8.07;;;11.30;99.90;;;;;;6177895;23;20469;-72
2021/11/30 10:03:49;;;;;;;10.70;9.70;;;11.30;99.90;;;;;;6177610;23;20409;-72
2021/11/30 10:06:20;;;;;;;9.77;8.80;;;11.40;99.90;;;;;;6177946;23;20792;-73
2021/11/30 10:08:55;;;;;;;9.70;8.80;;;11.40;99.90;;;;;;6179238;23;20773;-72
2021/11/30 10:11:33;;;;;;;9.03;8.23;;;11.40;99.90;;;;;;6178419;23;20897;-72
2021/11/30 10:14:18;;;;;;;13.20;9.60;;;11.30;99.90;;;;;;6181452;23;20590;-71
2021/11/30 10:17:18;;;;;;;9.13;8.20;;;11.40;99.90;;;;;;6179270;23;20444;-71
2021/11/30 10:20:01;;;;;;;9.33;8.47;;;11.60;99.90;;;;;;6180518;23;20406;-72
2021/11/30 10:22:45;;;;;;;7.57;6.87;;;11.70;99.90;;;;;;6179186;23;20497;-72
2021/11/30 10:25:21;;;;;;;7.90;7.20;;;11.70;99.90;;;;;;6176864;23;20833;-73
2021/11/30 10:27:53;;;;;;;7.70;7.00;;;11.60;99.90;;;;;;6178927;23;20983;-72
2021/11/30 10:30:28;;;;;;;8.00;7.20;;;11.60;99.90;;;;;;6177213;23;20965;-73
2021/11/30 10:33:03;;;;;;;8.50;7.90;;;11.60;99.90;;;;;;6179121;23;20461;-70
2021/11/30 10:35:36;;;;;;;8.20;7.50;;;11.50;99.90;;;;;;6176462;23;20935;-71
2021/11/30 10:38:08;;;;;;;6.33;5.83;;;11.60;99.90;;;;;;6179559;23;20975;-71
2021/11/30 10:40:41;;;;;;;6.47;5.87;;;11.50;99.90;;;;;;6178883;23;20421;-70
2021/11/30 10:43:12;;;;;;;6.07;5.57;;;11.50;99.90;;;;;;6178989;23;20488;-72
2021/11/30 10:45:45;;;;;;;5.50;5.10;;;11.50;99.90;;;;;;6177363;23;20532;-71
2021/11/30 10:48:24;;;;;;;5.10;4.70;;;11.50;99.90;;;;;;6180168;23;20814;-71
2021/11/30 10:50:59;;;;;;;5.67;5.17;;;11.50;99.90;;;;;;6178624;23;20487;-71
2021/11/30 10:53:32;;;;;;;5.07;4.57;;;11.50;99.90;;;;;;6180759;23;20464;-70
2021/11/30 10:56:04;;;;;;;4.90;4.50;;;11.40;99.90;;;;;;6178775;23;20865;-70
2021/11/30 10:58:38;;;;;;;5.70;4.90;;;11.40;99.90;;;;;;6178704;23;20409;-70
2021/11/30 11:01:10;;;;;;;5.23;4.17;;;11.40;99.90;;;;;;6177498;23;20444;-72
2021/11/30 11:03:41;;;;;;;4.70;4.30;;;11.40;99.90;;;;;;6178125;23;20422;-72
2021/11/30 11:06:32;;;;;;;3.90;3.50;;;11.30;99.90;;;;;;6179308;23;20524;-72
2021/11/30 11:09:06;;;;;;;4.80;4.40;;;11.40;99.90;;;;;;6179091;23;20422;-70
2021/11/30 11:11:40;;;;;;;4.53;4.13;;;11.30;99.90;;;;;;6178562;23;20424;-71
2021/11/30 11:14:20;;;;;;;4.73;4.33;;;11.30;99.90;;;;;;6180447;23;20492;-71
2021/11/30 11:16:53;;;;;;;7.13;6.63;;;11.30;99.90;;;;;;6180278;23;20468;-72
2021/11/30 11:19:42;;;;;;;5.53;4.27;;;11.30;99.90;;;;;;6177860;23;20902;-72
2021/11/30 11:22:19;;;;;;;5.20;4.33;;;11.20;99.90;;;;;;6178641;23;20434;-71
2021/11/30 11:24:51;;;;;;;4.90;4.40;;;11.20;99.90;;;;;;6177616;23;20406;-71
2021/11/30 11:27:32;;;;;;;6.40;5.90;;;11.30;99.90;;;;;;6176755;23;20417;-72
2021/11/30 11:30:04;;;;;;;6.80;6.20;;;11.30;99.90;;;;;;6178513;23;20488;-68
2021/11/30 11:32:35;;;;;;;6.60;5.87;;;11.30;99.90;;;;;;6173906;23;20402;-67
2021/11/30 11:35:07;;;;;;;6.17;5.67;;;11.30;99.90;;;;;;6177820;23;20423;-70
2021/11/30 11:37:39;;;;;;;5.90;5.40;;;11.30;99.90;;;;;;6178321;23;20924;-70
2021/11/30 11:40:12;;;;;;;7.53;6.83;;;11.30;99.90;;;;;;6177958;23;20411;-70
2021/11/30 11:42:44;;;;;;;5.73;5.23;;;11.40;99.90;;;;;;6178743;23;20866;-70
2021/11/30 11:45:15;;;;;;;7.27;5.60;;;11.40;99.90;;;;;;6178155;23;21014;-70
2021/11/30 11:47:46;;;;;;;6.47;5.87;;;11.40;99.90;;;;;;6180458;23;20410;-70
2021/11/30 11:50:18;;;;;;;7.40;6.23;;;11.40;99.90;;;;;;6176054;23;20786;-69
2021/11/30 11:52:52;;;;;;;6.37;5.87;;;11.50;99.90;;;;;;6180100;23;20438;-69
2021/11/30 11:55:22;;;;;;;5.63;5.13;;;11.60;99.90;;;;;;6173955;23;20414;-70
2021/11/30 11:58:01;;;;;;;7.50;6.80;;;11.60;99.90;;;;;;6176470;23;20502;-69
2021/11/30 12:00:33;;;;;;;7.50;6.80;;;11.60;99.90;;;;;;6173893;23;20432;-69
2021/11/30 12:03:07;;;;;;;5.90;5.40;;;11.70;99.90;;;;;;6184176;23;20413;-70
2021/11/30 12:05:49;;;;;;;7.10;6.53;;;11.70;99.90;;;;;;6183153;23;20520;-71
2021/11/30 12:08:24;;;;;;;6.87;6.30;;;11.70;99.90;;;;;;6177365;23;20921;-71
2021/11/30 12:10:55;;;;;;;6.63;5.60;;;11.70;99.90;;;;;;6178323;23;20414;-71
2021/11/30 12:13:27;;;;;;;7.10;6.40;;;11.60;99.90;;;;;;6177961;23;20410;-68
2021/11/30 12:16:04;;;;;;;6.87;6.27;;;11.60;99.90;;;;;;6178373;23;20445;-69
2021/11/30 12:18:37;;;;;;;6.60;5.90;;;11.60;99.90;;;;;;6176841;23;20477;-69
2021/11/30 12:21:13;;;;;;;6.27;5.77;;;11.50;99.90;;;;;;6178703;23;20431;-70
2021/11/30 12:23:47;;;;;;;7.27;6.57;;;11.50;99.90;;;;;;6180098;23;20416;-69
2021/11/30 12:26:37;;;;;;;6.63;5.97;;;11.40;99.90;;;;;;6173895;23;20441;-69
2021/11/30 12:29:35;;;;;;;6.47;5.87;;;11.40;99.90;;;;;;6176824;23;20510;-69
2021/11/30 12:32:26;;;;;;;6.70;6.10;;;11.30;99.90;;;;;;6175034;23;20410;-69
2021/11/30 12:35:00;;;;;;;8.03;7.23;;;11.20;99.90;;;;;;6180006;23;20730;-70
2021/11/30 12:37:33;;;;;;;7.33;6.73;;;11.20;99.90;;;;;;6174866;23;20436;-69
2021/11/30 12:40:09;;;;;;;7.07;6.43;;;11.20;99.90;;;;;;6175192;23;20428;-69
2021/11/30 12:42:57;;;;;;;7.83;7.10;;;11.20;99.90;;;;;;6182306;23;20819;-69
2021/11/30 12:45:48;;;;;;;8.40;6.40;;;11.20;99.90;;;;;;6181730;23;20932;-69
2021/11/30 12:48:22;;;;;;;7.77;7.07;;;11.30;99.90;;;;;;6177352;23;20429;-69
2021/11/30 12:50:58;;;;;;;7.43;6.53;;;11.40;99.90;;;;;;6182192;23;20410;-69
2021/11/30 12:53:43;;;;;;;6.47;5.80;;;11.40;99.90;;;;;;6179503;23;20452;-69
2021/11/30 12:56:36;;;;;;;5.80;5.30;;;11.50;99.90;;;;;;6176770;23;20414;-70
2021/11/30 12:59:07;;;;;;;6.17;5.67;;;11.50;99.90;;;;;;6177892;23;21291;-69
2021/11/30 13:01:38;;;;;;;5.10;4.60;;;11.60;99.90;;;;;;6178131;23;20414;-70
2021/11/30 13:04:33;;;;;;;5.50;4.87;;;11.50;99.90;;;;;;6180506;23;20409;-69
2021/11/30 13:07:08;;;;;;;5.90;5.17;;;11.60;99.90;;;;;;6179910;23;20437;-69
2021/11/30 13:09:41;;;;;;;6.07;4.57;;;11.70;99.90;;;;;;6186060;23;20487;-69
2021/11/30 13:12:18;;;;;;;3.97;3.67;;;11.70;99.90;;;;;;6180176;23;20410;-70
2021/11/30 13:14:51;;;;;;;7.27;4.10;;;11.80;99.90;;;;;;6181757;23;20418;-69
2021/11/30 13:17:27;;;;;;;5.13;3.63;;;11.80;99.90;;;;;;6177588;23;20505;-69
2021/11/30 13:19:58;;;;;;;3.90;3.60;;;11.90;99.90;;;;;;6178877;23;20520;-69
2021/11/30 13:22:28;;;;;;;3.73;3.43;;;11.90;99.90;;;;;;6181805;23;20718;-70
2021/11/30 13:25:01;;;;;;;4.37;3.97;;;11.90;99.90;;;;;;6176964;23;20416;-69
2021/11/30 13:27:35;;;;;;;3.73;3.43;;;11.90;99.90;;;;;;6177760;23;20437;-69
2021/11/30 13:30:09;;;;;;;4.57;3.37;;;11.90;99.90;;;;;;6177607;23;21200;-70
2021/11/30 13:32:42;;;;;;;4.13;3.40;;;11.90;99.90;;;;;;6178955;23;20721;-70
2021/11/30 13:35:15;;;;;;;4.20;3.80;;;12.00;99.90;;;;;;6179254;23;20802;-71
2021/11/30 13:38:09;;;;;;;3.87;3.53;;;12.00;99.90;;;;;;6179945;23;20406;-69
2021/11/30 13:40:43;;;;;;;4.20;3.60;;;12.00;99.90;;;;;;6181062;23;20948;-69
2021/11/30 13:43:17;;;;;;;3.03;2.80;;;12.00;99.90;;;;;;6181895;23;20414;-70
2021/11/30 13:45:52;;;;;;;3.77;3.47;;;12.00;99.90;;;;;;6178539;23;20416;-70
2021/11/30 13:48:25;;;;;;;3.57;3.07;;;12.00;99.90;;;;;;6177350;23;20447;-70
2021/11/30 13:50:57;;;;;;;3.60;3.30;;;12.00;99.90;;;;;;6179581;23;20417;-70
2021/11/30 13:53:31;;;;;;;3.40;3.10;;;12.00;99.90;;;;;;6180670;23;20468;-70
2021/11/30 13:56:16;;;;;;;3.80;3.50;;;12.10;99.90;;;;;;6177866;23;20416;-70
2021/11/30 13:58:51;;;;;;;3.70;3.40;;;12.10;99.90;;;;;;6177308;23;20503;-70
2021/11/30 14:01:25;;;;;;;3.57;3.27;;;12.10;99.90;;;;;;6177544;23;20420;-70
2021/11/30 14:03:58;;;;;;;4.07;3.60;;;12.00;99.90;;;;;;6180525;23;20944;-70
2021/11/30 14:06:31;;;;;;;3.90;3.60;;;12.10;99.90;;;;;;6179570;23;20428;-71
2021/11/30 14:09:09;;;;;;;3.73;3.43;;;12.10;99.90;;;;;;6178910;23;21264;-70
2021/11/30 14:11:46;;;;;;;3.70;3.40;;;12.10;99.90;;;;;;6179853;23;20507;-70
2021/11/30 14:14:37;;;;;;;4.13;3.83;;;12.10;99.90;;;;;;6183906;23;20793;-70
2021/11/30 14:17:09;;;;;;;3.90;3.60;;;12.10;99.90;;;;;;6176992;23;20913;-70
2021/11/30 14:19:44;;;;;;;3.80;3.50;;;12.10;99.90;;;;;;6178855;23;20516;-70
2021/11/30 14:22:18;;;;;;;4.03;3.47;;;12.10;99.90;;;;;;6181795;23;20415;-70
2021/11/30 14:24:54;;;;;;;3.57;3.30;;;12.00;99.90;;;;;;6177930;23;20448;-70
2021/11/30 14:27:28;;;;;;;4.63;3.10;;;12.00;99.90;;;;;;6177558;23;20441;-71
2021/11/30 14:30:00;;;;;;;3.93;3.13;;;12.10;99.90;;;;;;6179416;23;20903;-70
2021/11/30 14:32:31;;;;;;;4.00;3.50;;;12.00;99.90;;;;;;6178584;23;20765;-71
2021/11/30 14:35:06;;;;;;;3.30;3.00;;;12.00;99.90;;;;;;6180610;23;20484;-71
2021/11/30 14:37:50;;;;;;;2.90;2.70;;;12.10;99.90;;;;;;6179549;23;20480;-71
2021/11/30 14:40:23;;;;;;;3.77;3.40;;;12.10;99.90;;;;;;6180265;23;20414;-70
2021/11/30 14:42:55;;;;;;;3.43;2.93;;;12.20;99.90;;;;;;6181445;23;20414;-70